Schedule Details


Flight Number: CTN317
Departure: Henri Coandă International Airport (LROP) at 12:10
Arrival: Zagreb / Pleso (LDZA) at 13:15
Route: SOKRU?M747?NEKUL?P975?MOPUG?DCT?KOPRY?M986?RASIN

Weather Information
LROP 192100Z 26005KT CAVOK 12/11 Q1016 NOSIG
LDZA 192100Z 22002KT CAVOK 10/07 Q1017 NOSIG
Schedule Frequency

Route Map